sensor_id;sensor_type;location;lat;lon;timestamp;pressure;altitude;pressure_sealevel;temperature;humidity
66479;BME280;53294;47.912;13.526;2023-01-25T00:01:59;97656.22;;;0.38;85.52
66479;BME280;53294;47.912;13.526;2023-01-25T00:04:27;97661.69;;;0.36;85.37
66479;BME280;53294;47.912;13.526;2023-01-25T00:06:53;97662.31;;;0.38;85.51
66479;BME280;53294;47.912;13.526;2023-01-25T00:09:21;97662.34;;;0.45;85.08
66479;BME280;53294;47.912;13.526;2023-01-25T00:11:48;97664.13;;;0.38;85.21
66479;BME280;53294;47.912;13.526;2023-01-25T00:14:15;97661.81;;;0.28;85.78
66479;BME280;53294;47.912;13.526;2023-01-25T00:16:42;97665.53;;;0.33;85.53
66479;BME280;53294;47.912;13.526;2023-01-25T00:19:09;97663.56;;;0.42;85.38
66479;BME280;53294;47.912;13.526;2023-01-25T00:21:37;97659.84;;;0.37;85.30
66479;BME280;53294;47.912;13.526;2023-01-25T00:24:04;97663.94;;;0.39;85.05
66479;BME280;53294;47.912;13.526;2023-01-25T00:26:32;97665.22;;;0.50;84.61
66479;BME280;53294;47.912;13.526;2023-01-25T00:29:00;97658.31;;;0.49;84.67
66479;BME280;53294;47.912;13.526;2023-01-25T00:37:11;97664.72;;;0.33;85.23
66479;BME280;53294;47.912;13.526;2023-01-25T00:39:38;97658.66;;;0.39;84.98
66479;BME280;53294;47.912;13.526;2023-01-25T00:42:12;97658.00;;;0.37;84.82
66479;BME280;53294;47.912;13.526;2023-01-25T00:44:39;97655.84;;;0.47;84.52
66479;BME280;53294;47.912;13.526;2023-01-25T00:47:06;97656.63;;;0.41;84.32
66479;BME280;53294;47.912;13.526;2023-01-25T00:49:33;97659.66;;;0.38;84.77
66479;BME280;53294;47.912;13.526;2023-01-25T00:51:59;97665.16;;;0.43;84.38
66479;BME280;53294;47.912;13.526;2023-01-25T00:54:26;97657.00;;;0.38;84.73
66479;BME280;53294;47.912;13.526;2023-01-25T00:56:53;97658.22;;;0.35;84.64
66479;BME280;53294;47.912;13.526;2023-01-25T00:59:22;97655.75;;;0.34;84.93
66479;BME280;53294;47.912;13.526;2023-01-25T01:01:50;97655.75;;;0.34;84.76
66479;BME280;53294;47.912;13.526;2023-01-25T01:04:18;97655.13;;;0.25;85.29
66479;BME280;53294;47.912;13.526;2023-01-25T01:06:45;97653.50;;;0.31;84.79
66479;BME280;53294;47.912;13.526;2023-01-25T01:09:14;97654.94;;;0.33;84.49
66479;BME280;53294;47.912;13.526;2023-01-25T01:11:41;97653.38;;;0.39;84.44
66479;BME280;53294;47.912;13.526;2023-01-25T01:14:09;97656.63;;;0.41;84.30
66479;BME280;53294;47.912;13.526;2023-01-25T01:16:36;97655.63;;;0.42;84.49
66479;BME280;53294;47.912;13.526;2023-01-25T01:19:02;97650.56;;;0.47;84.42
66479;BME280;53294;47.912;13.526;2023-01-25T01:21:29;97648.16;;;0.52;84.07
66479;BME280;53294;47.912;13.526;2023-01-25T01:23:56;97648.59;;;0.56;83.89
66479;BME280;53294;47.912;13.526;2023-01-25T01:26:23;97646.59;;;0.65;83.56
66479;BME280;53294;47.912;13.526;2023-01-25T01:28:50;97649.91;;;0.80;82.74
66479;BME280;53294;47.912;13.526;2023-01-25T01:31:21;97648.63;;;0.63;83.70
66479;BME280;53294;47.912;13.526;2023-01-25T01:33:49;97647.06;;;0.75;83.12
66479;BME280;53294;47.912;13.526;2023-01-25T01:36:19;97644.63;;;0.80;82.91
66479;BME280;53294;47.912;13.526;2023-01-25T01:38:46;97645.56;;;0.66;83.21
66479;BME280;53294;47.912;13.526;2023-01-25T01:41:14;97638.53;;;0.80;82.69
66479;BME280;53294;47.912;13.526;2023-01-25T01:43:41;97644.19;;;0.70;82.71
66479;BME280;53294;47.912;13.526;2023-01-25T01:46:32;97628.25;;;0.63;83.41
66479;BME280;53294;47.912;13.526;2023-01-25T01:49:05;97624.16;;;0.54;83.66
66479;BME280;53294;47.912;13.526;2023-01-25T01:51:49;97626.59;;;0.56;84.03
66479;BME280;53294;47.912;13.526;2023-01-25T01:57:12;97615.47;;;0.67;83.20
66479;BME280;53294;47.912;13.526;2023-01-25T01:59:47;97620.09;;;0.58;83.45
66479;BME280;53294;47.912;13.526;2023-01-25T02:02:16;97619.06;;;0.52;83.74
66479;BME280;53294;47.912;13.526;2023-01-25T02:04:46;97611.81;;;0.68;83.06
66479;BME280;53294;47.912;13.526;2023-01-25T02:07:18;97617.75;;;0.70;83.09
66479;BME280;53294;47.912;13.526;2023-01-25T02:09:48;97622.28;;;0.89;82.21
66479;BME280;53294;47.912;13.526;2023-01-25T02:12:17;97613.09;;;0.85;82.35
66479;BME280;53294;47.912;13.526;2023-01-25T02:14:48;97617.75;;;0.70;82.66
66479;BME280;53294;47.912;13.526;2023-01-25T02:17:14;97618.94;;;0.74;82.54
66479;BME280;53294;47.912;13.526;2023-01-25T02:19:53;97617.75;;;0.70;82.52
66479;BME280;53294;47.912;13.526;2023-01-25T02:22:33;97617.66;;;0.57;83.05
66479;BME280;53294;47.912;13.526;2023-01-25T02:25:07;97610.44;;;0.37;84.06
66479;BME280;53294;47.912;13.526;2023-01-25T02:27:37;97618.44;;;0.50;83.70
66479;BME280;53294;47.912;13.526;2023-01-25T02:30:07;97614.16;;;0.49;83.55
66479;BME280;53294;47.912;13.526;2023-01-25T02:32:34;97615.63;;;0.59;83.30
66479;BME280;53294;47.912;13.526;2023-01-25T02:35:00;97612.75;;;0.53;83.18
66479;BME280;53294;47.912;13.526;2023-01-25T02:37:27;97623.72;;;0.44;83.60
66479;BME280;53294;47.912;13.526;2023-01-25T02:39:54;97614.28;;;0.34;83.89
66479;BME280;53294;47.912;13.526;2023-01-25T02:42:21;97623.22;;;0.33;84.38
66479;BME280;53294;47.912;13.526;2023-01-25T02:44:49;97620.63;;;0.40;83.85
66479;BME280;53294;47.912;13.526;2023-01-25T02:47:16;97630.19;;;0.41;83.70
66479;BME280;53294;47.912;13.526;2023-01-25T02:49:43;97624.28;;;0.39;83.94
66479;BME280;53294;47.912;13.526;2023-01-25T02:52:09;97623.50;;;0.45;83.49
66479;BME280;53294;47.912;13.526;2023-01-25T02:54:36;97608.19;;;0.34;83.96
66479;BME280;53294;47.912;13.526;2023-01-25T02:57:03;97622.81;;;0.30;84.29
66479;BME280;53294;47.912;13.526;2023-01-25T02:59:29;97612.44;;;0.28;84.17
66479;BME280;53294;47.912;13.526;2023-01-25T03:01:56;97622.34;;;0.20;84.72
66479;BME280;53294;47.912;13.526;2023-01-25T03:04:23;97618.44;;;0.15;84.63
66479;BME280;53294;47.912;13.526;2023-01-25T03:06:49;97609.13;;;0.20;84.61
66479;BME280;53294;47.912;13.526;2023-01-25T03:09:17;97609.69;;;0.15;84.75
66479;BME280;53294;47.912;13.526;2023-01-25T03:11:43;97601.34;;;0.11;84.60
66479;BME280;53294;47.912;13.526;2023-01-25T03:14:10;97601.97;;;0.13;84.56
66479;BME280;53294;47.912;13.526;2023-01-25T03:16:37;97609.09;;;0.13;84.74
66479;BME280;53294;47.912;13.526;2023-01-25T03:19:03;97598.72;;;0.11;84.73
66479;BME280;53294;47.912;13.526;2023-01-25T03:21:30;97600.75;;;0.16;84.72
66479;BME280;53294;47.912;13.526;2023-01-25T03:24:00;97602.84;;;0.21;84.46
66479;BME280;53294;47.912;13.526;2023-01-25T03:26:28;97597.78;;;0.32;83.88
66479;BME280;53294;47.912;13.526;2023-01-25T03:28:55;97591.69;;;0.25;84.18
66479;BME280;53294;47.912;13.526;2023-01-25T03:31:22;97594.72;;;0.22;84.25
66479;BME280;53294;47.912;13.526;2023-01-25T03:33:48;97595.50;;;0.23;84.25
66479;BME280;53294;47.912;13.526;2023-01-25T03:36:15;97588.19;;;0.25;84.19
66479;BME280;53294;47.912;13.526;2023-01-25T03:38:42;97593.56;;;0.38;83.57
66479;BME280;53294;47.912;13.526;2023-01-25T03:41:09;97591.72;;;0.39;83.44
66479;BME280;53294;47.912;13.526;2023-01-25T03:43:38;97597.00;;;0.32;83.76
66479;BME280;53294;47.912;13.526;2023-01-25T03:46:05;97599.81;;;0.30;83.75
66479;BME280;53294;47.912;13.526;2023-01-25T03:48:32;97602.50;;;0.37;83.57
66479;BME280;53294;47.912;13.526;2023-01-25T03:50:59;97601.28;;;0.33;83.80
66479;BME280;53294;47.912;13.526;2023-01-25T03:53:28;97593.75;;;0.37;83.93
66479;BME280;53294;47.912;13.526;2023-01-25T03:56:00;97595.09;;;0.19;84.35
66479;BME280;53294;47.912;13.526;2023-01-25T03:58:29;97584.06;;;0.15;84.35
66479;BME280;53294;47.912;13.526;2023-01-25T04:00:59;97591.00;;;0.16;84.71
66479;BME280;53294;47.912;13.526;2023-01-25T04:03:27;97589.38;;;0.15;84.59
66479;BME280;53294;47.912;13.526;2023-01-25T04:05:57;97586.41;;;0.32;83.88
66479;BME280;53294;47.912;13.526;2023-01-25T04:08:25;97581.34;;;0.37;83.66
66479;BME280;53294;47.912;13.526;2023-01-25T04:10:59;97576.41;;;0.21;84.19
66479;BME280;53294;47.912;13.526;2023-01-25T04:13:26;97574.19;;;0.24;84.42
66479;BME280;53294;47.912;13.526;2023-01-25T04:15:53;97576.81;;;0.24;84.42
66479;BME280;53294;47.912;13.526;2023-01-25T04:18:20;97572.31;;;0.18;84.49
66479;BME280;53294;47.912;13.526;2023-01-25T04:20:54;97567.78;;;0.05;85.13
66479;BME280;53294;47.912;13.526;2023-01-25T04:23:21;97573.47;;;0.09;84.76
66479;BME280;53294;47.912;13.526;2023-01-25T04:25:52;97567.59;;;0.13;84.68
66479;BME280;53294;47.912;13.526;2023-01-25T04:28:20;97562.94;;;0.15;84.75
66479;BME280;53294;47.912;13.526;2023-01-25T04:30:46;97557.66;;;0.15;84.61
66479;BME280;53294;47.912;13.526;2023-01-25T04:33:13;97561.75;;;0.25;84.06
66479;BME280;53294;47.912;13.526;2023-01-25T04:35:40;97556.47;;;0.25;84.06
66479;BME280;53294;47.912;13.526;2023-01-25T04:38:08;97561.81;;;0.31;84.10
66479;BME280;53294;47.912;13.526;2023-01-25T04:40:35;97554.88;;;0.24;84.12
66479;BME280;53294;47.912;13.526;2023-01-25T04:43:02;97560.53;;;0.21;84.27
66479;BME280;53294;47.912;13.526;2023-01-25T04:45:28;97565.84;;;0.27;84.19
66479;BME280;53294;47.912;13.526;2023-01-25T04:47:57;97554.91;;;0.37;83.66
66479;BME280;53294;47.912;13.526;2023-01-25T04:50:24;97560.66;;;0.41;83.31
66479;BME280;53294;47.912;13.526;2023-01-25T04:52:51;97560.59;;;0.34;83.31
66479;BME280;53294;47.912;13.526;2023-01-25T04:55:18;97559.81;;;0.40;83.30
66479;BME280;53294;47.912;13.526;2023-01-25T04:57:48;97557.84;;;0.56;82.77
66479;BME280;53294;47.912;13.526;2023-01-25T05:00:16;97547.91;;;0.64;82.22
66479;BME280;53294;47.912;13.526;2023-01-25T05:02:43;97545.69;;;0.68;82.05
66479;BME280;53294;47.912;13.526;2023-01-25T05:05:10;97541.22;;;0.68;81.98
66479;BME280;53294;47.912;13.526;2023-01-25T05:07:37;97540.00;;;0.71;81.66
66479;BME280;53294;47.912;13.526;2023-01-25T05:10:05;97535.09;;;0.68;81.78
66479;BME280;53294;47.912;13.526;2023-01-25T05:12:32;97538.53;;;0.62;81.82
66479;BME280;53294;47.912;13.526;2023-01-25T05:14:59;97525.97;;;0.70;81.73
66479;BME280;53294;47.912;13.526;2023-01-25T05:17:25;97535.47;;;0.58;82.01
66479;BME280;53294;47.912;13.526;2023-01-25T05:19:52;97525.97;;;0.70;81.71
66479;BME280;53294;47.912;13.526;2023-01-25T05:22:19;97527.75;;;0.57;82.12
66479;BME280;53294;47.912;13.526;2023-01-25T05:24:48;97532.25;;;0.76;81.54
66479;BME280;53294;47.912;13.526;2023-01-25T05:27:17;97528.03;;;0.88;81.14
66479;BME280;53294;47.912;13.526;2023-01-25T05:29:45;97532.31;;;0.83;81.00
66479;BME280;53294;47.912;13.526;2023-01-25T05:32:17;97529.41;;;0.71;81.08
66479;BME280;53294;47.912;13.526;2023-01-25T05:34:44;97526.34;;;0.61;81.80
66479;BME280;53294;47.912;13.526;2023-01-25T05:37:17;97524.88;;;0.51;81.67
66479;BME280;53294;47.912;13.526;2023-01-25T05:39:44;97536.41;;;0.37;82.73
66479;BME280;53294;47.912;13.526;2023-01-25T05:42:12;97532.59;;;0.46;82.46
66479;BME280;53294;47.912;13.526;2023-01-25T05:44:39;97531.84;;;0.66;81.92
66479;BME280;53294;47.912;13.526;2023-01-25T05:47:07;97533.31;;;0.75;81.38
66479;BME280;53294;47.912;13.526;2023-01-25T05:49:36;97526.50;;;0.46;82.08
66479;BME280;53294;47.912;13.526;2023-01-25T05:52:03;97534.84;;;0.49;82.55
66479;BME280;53294;47.912;13.526;2023-01-25T05:54:29;97533.44;;;0.60;82.12
66479;BME280;53294;47.912;13.526;2023-01-25T05:56:57;97525.63;;;0.39;82.85
66479;BME280;53294;47.912;13.526;2023-01-25T05:59:23;97523.59;;;0.34;83.08
66479;BME280;53294;47.912;13.526;2023-01-25T06:01:51;97528.00;;;0.20;83.68
66479;BME280;53294;47.912;13.526;2023-01-25T06:04:18;97529.81;;;0.20;83.50
66479;BME280;53294;47.912;13.526;2023-01-25T06:06:44;97518.28;;;0.34;82.93
66479;BME280;53294;47.912;13.526;2023-01-25T06:09:12;97521.97;;;0.33;83.07
66479;BME280;53294;47.912;13.526;2023-01-25T06:11:42;97521.53;;;0.29;83.16
66479;BME280;53294;47.912;13.526;2023-01-25T06:14:08;97518.66;;;0.17;83.55
66479;BME280;53294;47.912;13.526;2023-01-25T06:16:35;97521.88;;;0.13;83.85
66479;BME280;53294;47.912;13.526;2023-01-25T06:19:04;97511.31;;;0.20;83.56
66479;BME280;53294;47.912;13.526;2023-01-25T06:21:32;97513.78;;;0.28;83.29
66479;BME280;53294;47.912;13.526;2023-01-25T06:24:00;97517.41;;;0.20;83.55
66479;BME280;53294;47.912;13.526;2023-01-25T06:26:27;97512.97;;;0.21;83.45
66479;BME280;53294;47.912;13.526;2023-01-25T06:28:54;97514.66;;;0.35;83.27
66479;BME280;53294;47.912;13.526;2023-01-25T06:31:20;97508.50;;;0.28;83.27
66479;BME280;53294;47.912;13.526;2023-01-25T06:33:49;97500.38;;;0.23;83.38
66479;BME280;53294;47.912;13.526;2023-01-25T06:36:17;97503.19;;;0.21;83.56
66479;BME280;53294;47.912;13.526;2023-01-25T06:38:49;97509.75;;;0.32;83.25
66479;BME280;53294;47.912;13.526;2023-01-25T06:41:17;97504.09;;;0.42;82.54
66479;BME280;53294;47.912;13.526;2023-01-25T06:43:44;97502.88;;;0.44;82.44
66479;BME280;53294;47.912;13.526;2023-01-25T06:46:11;97500.06;;;0.52;82.12
66479;BME280;53294;47.912;13.526;2023-01-25T06:48:38;97496.22;;;0.62;81.79
66479;BME280;53294;47.912;13.526;2023-01-25T06:51:08;97502.09;;;0.50;82.32
66479;BME280;53294;47.912;13.526;2023-01-25T06:53:38;97495.22;;;0.56;81.97
66479;BME280;53294;47.912;13.526;2023-01-25T06:56:08;97491.13;;;0.53;82.23
66479;BME280;53294;47.912;13.526;2023-01-25T06:58:37;97490.72;;;0.63;81.78
66479;BME280;53294;47.912;13.526;2023-01-25T07:03:41;97483.59;;;0.50;82.02
66479;BME280;53294;47.912;13.526;2023-01-25T07:06:09;97493.16;;;0.51;81.91
66479;BME280;53294;47.912;13.526;2023-01-25T07:08:36;97482.59;;;0.65;81.36
66479;BME280;53294;47.912;13.526;2023-01-25T07:11:05;97487.50;;;0.68;81.61
66479;BME280;53294;47.912;13.526;2023-01-25T07:13:32;97483.66;;;0.70;81.13
66479;BME280;53294;47.912;13.526;2023-01-25T07:16:05;97477.34;;;0.78;80.96
66479;BME280;53294;47.912;13.526;2023-01-25T07:18:32;97480.19;;;0.83;80.84
66479;BME280;53294;47.912;13.526;2023-01-25T07:21:11;97477.97;;;1.00;80.28
66479;BME280;53294;47.912;13.526;2023-01-25T07:23:38;97478.38;;;1.04;79.92
66479;BME280;53294;47.912;13.526;2023-01-25T07:26:08;97483.06;;;0.95;80.20
66479;BME280;53294;47.912;13.526;2023-01-25T07:28:36;97478.19;;;0.99;80.14
66479;BME280;53294;47.912;13.526;2023-01-25T07:31:04;97479.41;;;0.89;80.41
66479;BME280;53294;47.912;13.526;2023-01-25T07:33:32;97472.09;;;1.12;79.70
66479;BME280;53294;47.912;13.526;2023-01-25T07:36:06;97477.38;;;1.25;79.57
66479;BME280;53294;47.912;13.526;2023-01-25T07:38:33;97475.94;;;1.22;79.04
66479;BME280;53294;47.912;13.526;2023-01-25T07:41:00;97478.19;;;1.19;79.35
66479;BME280;53294;47.912;13.526;2023-01-25T07:43:27;97488.38;;;1.29;79.16
66479;BME280;53294;47.912;13.526;2023-01-25T07:46:00;97487.16;;;1.31;78.92
66479;BME280;53294;47.912;13.526;2023-01-25T07:48:27;97484.72;;;1.36;78.74
66479;BME280;53294;47.912;13.526;2023-01-25T07:51:00;97481.47;;;1.07;78.87
66479;BME280;53294;47.912;13.526;2023-01-25T07:54:01;97486.13;;;0.99;79.65
66479;BME280;53294;47.912;13.526;2023-01-25T07:56:33;97493.84;;;1.07;79.77
66479;BME280;53294;47.912;13.526;2023-01-25T07:59:02;97492.44;;;0.98;79.38
66479;BME280;53294;47.912;13.526;2023-01-25T08:01:29;97496.06;;;0.77;80.33
66479;BME280;53294;47.912;13.526;2023-01-25T08:04:00;97485.09;;;0.86;80.20
66479;BME280;53294;47.912;13.526;2023-01-25T08:06:29;97482.88;;;0.97;79.86
66479;BME280;53294;47.912;13.526;2023-01-25T08:09:04;97487.75;;;1.06;79.50
66479;BME280;53294;47.912;13.526;2023-01-25T08:11:31;97483.84;;;0.82;80.36
66479;BME280;53294;47.912;13.526;2023-01-25T08:13:59;97487.09;;;0.71;80.60
66479;BME280;53294;47.912;13.526;2023-01-25T08:16:29;97478.56;;;0.69;80.53
66479;BME280;53294;47.912;13.526;2023-01-25T08:18:58;97477.28;;;0.51;81.38
66479;BME280;53294;47.912;13.526;2023-01-25T08:21:26;97476.06;;;0.47;81.63
66479;BME280;53294;47.912;13.526;2023-01-25T08:24:00;97474.44;;;0.53;81.32
66479;BME280;53294;47.912;13.526;2023-01-25T08:26:27;97474.00;;;0.43;81.87
66479;BME280;53294;47.912;13.526;2023-01-25T08:28:55;97483.78;;;0.42;81.85
66479;BME280;53294;47.912;13.526;2023-01-25T08:31:24;97476.00;;;0.34;82.04
66479;BME280;53294;47.912;13.526;2023-01-25T08:33:52;97476.84;;;0.41;82.14
66479;BME280;53294;47.912;13.526;2023-01-25T08:36:22;97478.03;;;0.32;82.21
66479;BME280;53294;47.912;13.526;2023-01-25T08:38:53;97471.91;;;0.25;82.36
66479;BME280;53294;47.912;13.526;2023-01-25T08:41:20;97473.59;;;0.39;82.23
66479;BME280;53294;47.912;13.526;2023-01-25T08:43:46;97469.16;;;0.53;81.61
66479;BME280;53294;47.912;13.526;2023-01-25T08:46:15;97466.28;;;0.41;82.02
66479;BME280;53294;47.912;13.526;2023-01-25T08:48:42;97471.56;;;0.34;82.11
66479;BME280;53294;47.912;13.526;2023-01-25T08:51:11;97475.19;;;0.33;82.18
66479;BME280;53294;47.912;13.526;2023-01-25T08:53:38;97471.09;;;0.24;82.41
66479;BME280;53294;47.912;13.526;2023-01-25T08:56:07;97462.19;;;0.32;82.42
66479;BME280;53294;47.912;13.526;2023-01-25T08:58:39;97460.13;;;0.34;82.02
66479;BME280;53294;47.912;13.526;2023-01-25T09:01:09;97454.84;;;0.27;82.51
66479;BME280;53294;47.912;13.526;2023-01-25T09:03:39;97456.03;;;0.25;82.28
66479;BME280;53294;47.912;13.526;2023-01-25T09:06:07;97456.47;;;0.28;82.17
66479;BME280;53294;47.912;13.526;2023-01-25T09:08:34;97453.63;;;0.30;82.21
66479;BME280;53294;47.912;13.526;2023-01-25T09:11:02;97460.34;;;0.32;82.34
66479;BME280;53294;47.912;13.526;2023-01-25T09:13:29;97460.53;;;0.31;82.00
66479;BME280;53294;47.912;13.526;2023-01-25T09:16:02;97463.41;;;0.36;82.08
66479;BME280;53294;47.912;13.526;2023-01-25T09:18:31;97457.94;;;0.44;81.42
66479;BME280;53294;47.912;13.526;2023-01-25T09:20:59;97463.81;;;0.33;81.67
66479;BME280;53294;47.912;13.526;2023-01-25T09:23:30;97460.78;;;0.49;81.67
66479;BME280;53294;47.912;13.526;2023-01-25T09:26:05;97453.25;;;0.46;81.39
66479;BME280;53294;47.912;13.526;2023-01-25T09:28:32;97447.97;;;0.40;81.41
66479;BME280;53294;47.912;13.526;2023-01-25T09:31:01;97450.22;;;0.43;81.37
66479;BME280;53294;47.912;13.526;2023-01-25T09:33:46;97449.16;;;0.37;81.59
66479;BME280;53294;47.912;13.526;2023-01-25T09:36:13;97451.00;;;0.43;81.45
66479;BME280;53294;47.912;13.526;2023-01-25T09:38:41;97439.84;;;0.41;81.52
66479;BME280;53294;47.912;13.526;2023-01-25T09:41:25;97438.44;;;0.45;80.99
66479;BME280;53294;47.912;13.526;2023-01-25T09:44:08;97433.75;;;0.47;81.19
66479;BME280;53294;47.912;13.526;2023-01-25T09:55:38;97420.72;;;0.52;80.96
66479;BME280;53294;47.912;13.526;2023-01-25T09:58:11;97429.91;;;0.57;80.77
66479;BME280;53294;47.912;13.526;2023-01-25T10:00:46;97427.66;;;0.60;80.48
66479;BME280;53294;47.912;13.526;2023-01-25T10:05:53;97403.28;;;0.71;79.70
66479;BME280;53294;47.912;13.526;2023-01-25T10:08:35;97401.66;;;0.64;80.17
66479;BME280;53294;47.912;13.526;2023-01-25T10:11:29;97400.00;;;0.63;79.71
66479;BME280;53294;47.912;13.526;2023-01-25T10:13:57;97401.25;;;0.67;79.78
66479;BME280;53294;47.912;13.526;2023-01-25T10:16:43;97392.69;;;0.78;79.89
66479;BME280;53294;47.912;13.526;2023-01-25T10:22:03;97396.38;;;0.91;79.23
66479;BME280;53294;47.912;13.526;2023-01-25T10:30:30;97391.47;;;1.01;79.20
66479;BME280;53294;47.912;13.526;2023-01-25T10:32:59;97382.28;;;1.10;78.93
66479;BME280;53294;47.912;13.526;2023-01-25T10:35:30;97378.22;;;1.01;78.24
66479;BME280;53294;47.912;13.526;2023-01-25T10:38:08;97378.03;;;1.09;78.67
66479;BME280;53294;47.912;13.526;2023-01-25T10:40:47;97377.00;;;1.10;78.31
66479;BME280;53294;47.912;13.526;2023-01-25T10:43:19;97375.41;;;1.09;78.77
66479;BME280;53294;47.912;13.526;2023-01-25T10:45:46;97376.38;;;1.15;78.35
66479;BME280;53294;47.912;13.526;2023-01-25T10:48:19;97367.47;;;1.09;78.13
66479;BME280;53294;47.912;13.526;2023-01-25T10:50:49;97360.13;;;1.04;78.29
66479;BME280;53294;47.912;13.526;2023-01-25T10:55:58;97353.19;;;1.10;77.87
66479;BME280;53294;47.912;13.526;2023-01-25T10:58:42;97344.66;;;0.95;78.51
66479;BME280;53294;47.912;13.526;2023-01-25T11:01:26;97353.63;;;0.74;79.00
66479;BME280;53294;47.912;13.526;2023-01-25T11:03:53;97356.50;;;0.65;79.69
66479;BME280;53294;47.912;13.526;2023-01-25T11:06:31;97349.34;;;0.79;79.05
66479;BME280;53294;47.912;13.526;2023-01-25T11:08:58;97346.28;;;0.76;79.14
66479;BME280;53294;47.912;13.526;2023-01-25T11:11:34;97342.25;;;0.73;79.26
66479;BME280;53294;47.912;13.526;2023-01-25T11:14:14;97343.03;;;1.00;78.66
66479;BME280;53294;47.912;13.526;2023-01-25T11:16:44;97329.59;;;1.02;78.60
66479;BME280;53294;47.912;13.526;2023-01-25T11:19:35;97324.69;;;1.05;78.19
66479;BME280;53294;47.912;13.526;2023-01-25T11:24:45;97316.16;;;0.90;78.62
66479;BME280;53294;47.912;13.526;2023-01-25T11:27:20;97314.94;;;0.79;78.58
66479;BME280;53294;47.912;13.526;2023-01-25T11:30:08;97316.81;;;0.72;78.83
66479;BME280;53294;47.912;13.526;2023-01-25T11:32:39;97301.31;;;0.82;78.75
66479;BME280;53294;47.912;13.526;2023-01-25T11:35:20;97301.13;;;0.91;78.55
66479;BME280;53294;47.912;13.526;2023-01-25T11:40:38;97288.06;;;0.96;78.59
66479;BME280;53294;47.912;13.526;2023-01-25T11:49:16;97271.41;;;0.95;78.63
66479;BME280;53294;47.912;13.526;2023-01-25T12:00:04;97246.94;;;1.06;77.81
66479;BME280;53294;47.912;13.526;2023-01-25T12:05:57;97229.03;;;1.02;78.14
66479;BME280;53294;47.912;13.526;2023-01-25T12:08:47;97218.28;;;0.97;78.10
66479;BME280;53294;47.912;13.526;2023-01-25T12:11:39;97209.69;;;1.08;78.34
66479;BME280;53294;47.912;13.526;2023-01-25T12:17:01;97185.44;;;1.11;77.53
66479;BME280;53294;47.912;13.526;2023-01-25T12:33:14;97174.13;;;1.36;77.39
66479;BME280;53294;47.912;13.526;2023-01-25T12:35:51;97177.44;;;1.24;77.25
66479;BME280;53294;47.912;13.526;2023-01-25T12:38:36;97163.78;;;1.28;77.29
66479;BME280;53294;47.912;13.526;2023-01-25T12:44:02;97168.63;;;1.37;77.03
66479;BME280;53294;47.912;13.526;2023-01-25T12:46:43;97158.75;;;1.51;76.67
66479;BME280;53294;47.912;13.526;2023-01-25T12:49:19;97161.94;;;1.67;76.39
66479;BME280;53294;47.912;13.526;2023-01-25T12:51:49;97144.88;;;1.56;76.44
66479;BME280;53294;47.912;13.526;2023-01-25T12:54:39;97141.81;;;1.52;76.57
66479;BME280;53294;47.912;13.526;2023-01-25T12:57:24;97146.34;;;1.77;76.31
66479;BME280;53294;47.912;13.526;2023-01-25T13:11:20;97130.31;;;1.72;75.55
66479;BME280;53294;47.912;13.526;2023-01-25T13:13:49;97120.41;;;1.86;75.36
66479;BME280;53294;47.912;13.526;2023-01-25T13:16:32;97128.69;;;1.96;75.06
66479;BME280;53294;47.912;13.526;2023-01-25T13:18:59;97118.53;;;1.93;75.06
66479;BME280;53294;47.912;13.526;2023-01-25T13:24:16;97119.00;;;1.83;74.95
66479;BME280;53294;47.912;13.526;2023-01-25T13:32:03;97117.34;;;1.57;75.76
66479;BME280;53294;47.912;13.526;2023-01-25T13:39:46;97116.78;;;1.23;75.91
66479;BME280;53294;47.912;13.526;2023-01-25T13:42:30;97121.38;;;1.34;76.18
66479;BME280;53294;47.912;13.526;2023-01-25T13:45:00;97113.03;;;1.37;76.08
66479;BME280;53294;47.912;13.526;2023-01-25T13:47:33;97109.22;;;1.27;76.10
66479;BME280;53294;47.912;13.526;2023-01-25T13:50:23;97114.34;;;1.21;76.21
66479;BME280;53294;47.912;13.526;2023-01-25T13:55:42;97112.00;;;1.00;77.31
66479;BME280;53294;47.912;13.526;2023-01-25T13:58:24;97097.84;;;1.19;76.98
66479;BME280;53294;47.912;13.526;2023-01-25T14:00:59;97103.91;;;1.27;76.36
66479;BME280;53294;47.912;13.526;2023-01-25T14:04:10;97097.94;;;1.38;76.11
66479;BME280;53294;47.912;13.526;2023-01-25T14:06:38;97095.13;;;1.33;75.84
66479;BME280;53294;47.912;13.526;2023-01-25T14:09:15;97092.56;;;1.19;76.01
66479;BME280;53294;47.912;13.526;2023-01-25T14:11:47;97082.31;;;1.30;76.02
66479;BME280;53294;47.912;13.526;2023-01-25T14:17:00;97073.78;;;1.28;75.89
66479;BME280;53294;47.912;13.526;2023-01-25T14:19:28;97077.97;;;1.42;75.55
66479;BME280;53294;47.912;13.526;2023-01-25T14:24:40;97079.31;;;1.51;75.54
66479;BME280;53294;47.912;13.526;2023-01-25T14:27:12;97078.81;;;1.61;74.99
66479;BME280;53294;47.912;13.526;2023-01-25T14:29:40;97080.19;;;1.45;75.25
66479;BME280;53294;47.912;13.526;2023-01-25T14:32:15;97076.22;;;1.29;76.03
66479;BME280;53294;47.912;13.526;2023-01-25T14:34:43;97072.16;;;1.27;76.30
66479;BME280;53294;47.912;13.526;2023-01-25T14:37:16;97076.16;;;1.36;75.91
66479;BME280;53294;47.912;13.526;2023-01-25T14:39:44;97069.09;;;1.30;76.14
66479;BME280;53294;47.912;13.526;2023-01-25T14:42:11;97074.38;;;1.30;75.82
66479;BME280;53294;47.912;13.526;2023-01-25T14:44:39;97064.69;;;1.17;76.28
66479;BME280;53294;47.912;13.526;2023-01-25T14:47:29;97065.63;;;1.29;76.15
66479;BME280;53294;47.912;13.526;2023-01-25T14:50:29;97060.13;;;1.31;75.73
66479;BME280;53294;47.912;13.526;2023-01-25T14:52:58;97063.19;;;1.28;76.13
66479;BME280;53294;47.912;13.526;2023-01-25T14:55:26;97063.63;;;1.24;76.18
66479;BME280;53294;47.912;13.526;2023-01-25T14:57:58;97057.41;;;1.37;75.38
66479;BME280;53294;47.912;13.526;2023-01-25T15:00:27;97055.00;;;1.36;76.06
66479;BME280;53294;47.912;13.526;2023-01-25T15:03:03;97046.81;;;1.12;76.12
66479;BME280;53294;47.912;13.526;2023-01-25T15:05:33;97044.91;;;1.19;76.14
66479;BME280;53294;47.912;13.526;2023-01-25T15:10:34;97043.09;;;1.45;75.67